Stella Del Nord — 2ISC3 — position and weather

sailwx.info

Track history (hours):
 
Tides and Currents Weather Stations Pressure Air Temp Water Temp Dewpoint Dewpoint Depression Visibility Wind Speed Wind Dir Waves Ship Positions

Stella Del Nord

Last reported at 2017-Aug-27 05:44 UTC. Time now 2017-Nov-19 21:58 UTC.
Position N 36°59' E 025°17'.
Warning: this ship's position is months out of date.

Length 26 m.

Type: Pleasure craft. MMSI: 235112353.

Date/timePositionNaut miles runAvg speedWind from/ knotsBaromVisibWave heightAir tempDewpointWater temp
2017-Aug-27 05:44N 36°59' E 025°17'210.7
2017-Aug-27 05:30N 37°02' E 025°17'510.9
2017-Aug-27 05:00N 37°07' E 025°18'3 6.0
2017-Aug-27 04:27N 37°10' E 025°15'2 2.9
2017-Aug-27 03:54N 37°09' E 025°14'0 0.0
2017-Aug-27 03:30N 37°09' E 025°14'0 0.0
2017-Aug-27 02:54N 37°09' E 025°14'0 0.0
2017-Aug-27 02:15N 37°09' E 025°14'0 0.0
2017-Aug-27 01:48N 37°09' E 025°14'0 0.0
2017-Aug-27 01:30N 37°09' E 025°14'0 0.0
2017-Aug-27 00:57N 37°09' E 025°14'0 0.0
2017-Aug-27 00:30N 37°09' E 025°14'0 0.0
2017-Aug-26 23:57N 37°09' E 025°14'0 0.0
2017-Aug-26 23:24N 37°09' E 025°14'0 0.0
2017-Aug-26 22:54N 37°09' E 025°14'0 0.0
2017-Aug-26 22:27N 37°09' E 025°14'0 0.0
2017-Aug-26 21:54N 37°09' E 025°14'0 0.0
2017-Aug-26 21:27N 37°09' E 025°14'0 0.1
2017-Aug-26 21:00N 37°09' E 025°14'0 0.0
2017-Aug-26 20:30N 37°09' E 025°14'0 0.0
2017-Aug-26 19:48N 37°09' E 025°14'0 0.0
2017-Aug-26 19:27N 37°09' E 025°14'0 0.0
2017-Aug-26 18:51N 37°09' E 025°14'0 0.0
2017-Aug-26 18:21N 37°09' E 025°14'0 0.0
2017-Aug-26 18:00N 37°09' E 025°14'0 0.0
2017-Aug-26 17:21N 37°09' E 025°14'0 0.0
2017-Aug-26 16:51N 37°09' E 025°14'0 0.0
2017-Aug-26 16:30N 37°09' E 025°14'0 0.0
2017-Aug-26 16:00N 37°09' E 025°14'0 0.0
2017-Aug-26 15:27N 37°09' E 025°14'0 0.0
2017-Aug-26 14:54N 37°09' E 025°14'0 0.0
2017-Aug-26 13:51N 37°09' E 025°14'0 0.0
2017-Aug-26 13:27N 37°09' E 025°14'0 0.1
2017-Aug-26 13:00N 37°09' E 025°14'0 0.0
2017-Aug-26 12:24N 37°09' E 025°14'0 0.0
2017-Aug-26 12:00N 37°09' E 025°14'0 0.0
2017-Aug-26 11:21N 37°09' E 025°14'0 0.2
2017-Aug-26 11:00N 37°09' E 025°14'0 0.4
2017-Aug-26 10:30N 37°08' E 025°14'0 0.0
2017-Aug-26 09:49N 37°08' E 025°14'0 0.0
2017-Aug-26 09:28N 37°08' E 025°14'0 0.0
2017-Aug-26 08:49N 37°08' E 025°14'0 0.0
2017-Aug-26 08:16N 37°08' E 025°14'0 0.0
2017-Aug-26 07:43N 37°08' E 025°14'0 0.0
2017-Aug-26 07:22N 37°08' E 025°14'0 0.0
2017-Aug-26 06:52N 37°08' E 025°14'0 0.0
2017-Aug-26 06:25N 37°08' E 025°14'1 1.8
2017-Aug-26 05:56N 37°09' E 025°15'410.0
2017-Aug-26 05:30N 37°13' E 025°16'510.4
2017-Aug-26 05:00N 37°18' E 025°18'5 9.8
2017-Aug-26 04:30N 37°23' E 025°19'2 3.6
2017-Aug-26 03:57N 37°25' E 025°20'0 0.0
2017-Aug-26 03:27N 37°25' E 025°20'0 0.0
2017-Aug-26 02:48N 37°25' E 025°20'0 0.0
2017-Aug-26 02:24N 37°25' E 025°20'0 0.0
2017-Aug-26 01:57N 37°25' E 025°20'0 0.0
2017-Aug-26 01:30N 37°25' E 025°20'0 0.0
2017-Aug-26 01:00N 37°25' E 025°20'0 0.0
2017-Aug-26 00:30N 37°25' E 025°20'0 0.0
2017-Aug-25 23:54N 37°25' E 025°20'0 0.0
2017-Aug-25 23:21N 37°25' E 025°20'0 0.0
2017-Aug-25 23:00N 37°25' E 025°20'0 0.0
2017-Aug-25 22:30N 37°25' E 025°20'0 0.0
2017-Aug-25 21:57N 37°25' E 025°20'0 0.0
2017-Aug-25 21:30N 37°25' E 025°20'0 0.0
2017-Aug-25 21:00N 37°25' E 025°20'0 0.0
2017-Aug-25 20:30N 37°25' E 025°20'0 0.0
2017-Aug-25 20:00N 37°25' E 025°20'0 0.0
2017-Aug-25 19:30N 37°25' E 025°20'0 0.0
2017-Aug-25 19:00N 37°25' E 025°20'0 0.0
2017-Aug-25 18:27N 37°25' E 025°20'0 0.0
2017-Aug-25 18:00N 37°25' E 025°20'0 0.0
2017-Aug-25 17:27N 37°25' E 025°20'0 0.0
2017-Aug-25 17:00N 37°25' E 025°20'0 0.0
2017-Aug-25 16:30N 37°25' E 025°20'0 0.0
2017-Aug-25 16:00N 37°25' E 025°20'0 0.0
2017-Aug-25 15:27N 37°25' E 025°20'0 0.0
2017-Aug-25 14:51N 37°25' E 025°20'0 0.0
2017-Aug-25 14:24N 37°25' E 025°20'0 0.0
2017-Aug-25 13:30N 37°25' E 025°20'0 0.0
2017-Aug-25 13:00N 37°25' E 025°20'0 0.0
2017-Aug-25 12:27N 37°25' E 025°20'0 0.0
2017-Aug-25 12:00N 37°25' E 025°20'0 0.0
2017-Aug-25 11:21N 37°25' E 025°20'0 0.0
2017-Aug-25 11:00N 37°25' E 025°20'0 0.0
2017-Aug-25 10:30N 37°25' E 025°20'0 0.0
2017-Aug-25 10:00N 37°25' E 025°20'0 0.0
2017-Aug-25 09:30N 37°25' E 025°20'0 0.0
2017-Aug-25 08:57N 37°25' E 025°20'0 0.0
2017-Aug-25 08:30N 37°25' E 025°20'0 0.0
2017-Aug-25 08:00N 37°25' E 025°20'0 0.0
2017-Aug-25 07:30N 37°25' E 025°20'0 0.0
2017-Aug-25 07:00N 37°25' E 025°20'0 0.0
2017-Aug-25 06:30N 37°25' E 025°20'0 0.0
2017-Aug-25 06:00N 37°25' E 025°20'0 0.0
2017-Aug-25 05:30N 37°25' E 025°20'0 0.0
2017-Aug-25 05:00N 37°25' E 025°20'0 0.0
2017-Aug-25 04:24N 37°25' E 025°20'0 0.0
2017-Aug-25 04:00N 37°25' E 025°20'0 0.0
2017-Aug-25 03:30N 37°25' E 025°20'0 0.0
2017-Aug-25 02:57N 37°25' E 025°20'0 0.0
2017-Aug-25 02:30N 37°25' E 025°20'0 0.0
2017-Aug-25 02:00N 37°25' E 025°20'0 0.0
2017-Aug-25 01:30N 37°25' E 025°20'0 0.0
2017-Aug-25 01:00N 37°25' E 025°20'0 0.0
2017-Aug-25 00:30N 37°25' E 025°20'0 0.0
2017-Aug-24 23:57N 37°25' E 025°20'0 0.0
2017-Aug-24 23:30N 37°25' E 025°20'0 0.0
2017-Aug-24 22:57N 37°25' E 025°20'0 0.0
2017-Aug-24 22:30N 37°25' E 025°20'0 0.0
2017-Aug-24 21:57N 37°25' E 025°20'0 0.0
2017-Aug-24 21:24N 37°25' E 025°20'0 0.0
2017-Aug-24 21:00N 37°25' E 025°20'0 0.0
2017-Aug-24 20:30N 37°25' E 025°20'0 0.0
2017-Aug-24 20:00N 37°25' E 025°20'0 0.0
2017-Aug-24 19:30N 37°25' E 025°20'0 0.0
2017-Aug-24 19:00N 37°25' E 025°20'0 0.0
2017-Aug-24 18:15N 37°25' E 025°20'0 0.0
2017-Aug-24 17:57N 37°25' E 025°20'0 0.0
2017-Aug-24 16:54N 37°25' E 025°20'0 0.0
2017-Aug-24 16:30N 37°25' E 025°20'0 0.0
2017-Aug-24 16:00N 37°25' E 025°20'0 0.0
2017-Aug-24 15:15N 37°25' E 025°20'0 0.0
2017-Aug-24 14:42N 37°25' E 025°20'0 0.0
2017-Aug-24 14:27N 37°25' E 025°20'0 0.0
2017-Aug-24 14:00N 37°25' E 025°20'0 0.0
2017-Aug-24 13:30N 37°25' E 025°20'0 0.0
2017-Aug-24 12:57N 37°25' E 025°20'0 0.0
2017-Aug-24 12:27N 37°25' E 025°20'0 0.0
2017-Aug-24 10:57N 37°25' E 025°20'0 0.0
2017-Aug-24 10:24N 37°25' E 025°20'0 0.0
2017-Aug-24 09:51N 37°25' E 025°20'0 0.0
2017-Aug-24 09:30N 37°25' E 025°20'0 0.0
2017-Aug-24 08:57N 37°25' E 025°20'0 0.0
2017-Aug-24 08:06N 37°25' E 025°20'0 0.0
2017-Aug-24 08:00N 37°25' E 025°20'0 0.0
2017-Aug-24 07:30N 37°25' E 025°20'0 0.0
2017-Aug-24 07:00N 37°25' E 025°20'0 0.0
2017-Aug-24 06:30N 37°25' E 025°20'0 0.0
2017-Aug-24 06:00N 37°25' E 025°20'0 0.0
2017-Aug-24 05:30N 37°25' E 025°20'0 0.0
2017-Aug-24 05:00N 37°25' E 025°20'0 0.0
2017-Aug-24 04:30N 37°25' E 025°20'0 0.0
2017-Aug-24 04:00N 37°25' E 025°20'0 0.0
2017-Aug-24 03:30N 37°25' E 025°20'0 0.0
2017-Aug-24 02:57N 37°25' E 025°20'0 0.0
2017-Aug-24 02:24N 37°25' E 025°20'0 0.0
2017-Aug-24 02:00N 37°25' E 025°20'0 0.0
2017-Aug-24 01:30N 37°25' E 025°20'0 0.0
2017-Aug-24 01:00N 37°25' E 025°20'0 0.0
2017-Aug-24 00:30N 37°25' E 025°20'0 0.0
2017-Aug-24 00:00N 37°25' E 025°20'0 0.0
2017-Aug-23 23:27N 37°25' E 025°20'0 0.0
2017-Aug-23 23:00N 37°25' E 025°20'0 0.0
2017-Aug-23 22:30N 37°25' E 025°20'0 0.0
2017-Aug-23 22:00N 37°25' E 025°20'0 0.0
2017-Aug-23 21:30N 37°25' E 025°20'0 0.0
2017-Aug-23 21:00N 37°25' E 025°20'0 0.0
2017-Aug-23 20:27N 37°25' E 025°20'0 0.0
2017-Aug-23 20:00N 37°25' E 025°20'0 0.0
2017-Aug-23 19:30N 37°25' E 025°20'0 0.0
2017-Aug-23 19:00N 37°25' E 025°20'0 0.0
2017-Aug-23 18:21N 37°25' E 025°20'0 0.0
2017-Aug-23 17:57N 37°25' E 025°20'0 0.0
2017-Aug-23 17:30N 37°25' E 025°20'0 0.0
2017-Aug-23 16:57N 37°25' E 025°20'0 0.0
2017-Aug-23 16:27N 37°25' E 025°20'0 0.0
2017-Aug-23 16:00N 37°25' E 025°20'0 0.0
2017-Aug-23 15:30N 37°25' E 025°20'0 0.0
2017-Aug-23 14:57N 37°25' E 025°20'0 0.0
2017-Aug-23 14:00N 37°25' E 025°20'0 0.0
2017-Aug-23 13:30N 37°25' E 025°20'0 0.0
2017-Aug-23 12:57N 37°25' E 025°20'0 0.0
2017-Aug-23 12:18N 37°25' E 025°20'0 0.0
2017-Aug-23 12:00N 37°25' E 025°20'0 0.0
2017-Aug-23 11:30N 37°25' E 025°20'0 0.0
2017-Aug-23 11:00N 37°25' E 025°20'0 0.0
2017-Aug-23 10:30N 37°25' E 025°20'0 0.0
2017-Aug-23 10:00N 37°25' E 025°20'0 0.0
2017-Aug-23 09:30N 37°25' E 025°20'0 0.0
2017-Aug-23 09:00N 37°25' E 025°20'0 0.0
2017-Aug-23 08:30N 37°25' E 025°20'0 0.0
2017-Aug-23 08:00N 37°25' E 025°20'0 0.0
2017-Aug-23 07:27N 37°25' E 025°20'0 0.0
2017-Aug-23 07:00N 37°25' E 025°20'0 0.0
2017-Aug-23 06:30N 37°25' E 025°20'0 0.0
2017-Aug-23 05:57N 37°25' E 025°20'0 0.0
2017-Aug-23 05:30N 37°25' E 025°20'0 0.0
2017-Aug-23 04:54N 37°25' E 025°20'0 0.0
2017-Aug-23 04:30N 37°25' E 025°20'0 0.0
2017-Aug-23 04:00N 37°25' E 025°20'0 0.0
2017-Aug-23 03:21N 37°25' E 025°20'0 0.0
2017-Aug-23 03:00N 37°25' E 025°20'0 0.0
2017-Aug-23 02:30N 37°25' E 025°20'0 0.0
2017-Aug-23 01:54N 37°25' E 025°20'0 0.0
2017-Aug-23 01:30N 37°25' E 025°20'0 0.0
2017-Aug-23 01:00N 37°25' E 025°20'0 0.0
2017-Aug-23 00:27N 37°25' E 025°20'0 0.0
2017-Aug-22 23:57N 37°25' E 025°20'0 0.0
2017-Aug-22 23:30N 37°25' E 025°20'0 0.0
2017-Aug-22 23:00N 37°25' E 025°20'0 0.0
2017-Aug-22 22:27N 37°25' E 025°20'0 0.0
2017-Aug-22 22:00N 37°25' E 025°20'0 0.0
2017-Aug-22 21:30N 37°25' E 025°20'0 0.0
2017-Aug-22 21:00N 37°25' E 025°20'0 0.0
2017-Aug-22 20:30N 37°25' E 025°20'0 0.0
2017-Aug-22 20:00N 37°25' E 025°20'0 0.0
2017-Aug-22 19:30N 37°25' E 025°20'0 0.0
2017-Aug-22 19:00N 37°25' E 025°20'0 0.0
2017-Aug-22 18:30N 37°25' E 025°20'0 0.0
2017-Aug-22 17:54N 37°25' E 025°20'0 0.0
2017-Aug-22 17:30N 37°25' E 025°20'0 0.0
2017-Aug-22 17:00N 37°25' E 025°20'0 0.0
2017-Aug-22 16:30N 37°25' E 025°20'0 0.0
2017-Aug-22 16:00N 37°25' E 025°20'0 0.0
2017-Aug-22 15:30N 37°25' E 025°20'0 0.0
2017-Aug-22 14:54N 37°25' E 025°20'0 0.0
2017-Aug-22 14:30N 37°25' E 025°20'0 0.0
2017-Aug-22 14:00N 37°25' E 025°20'0 0.0
2017-Aug-22 13:21N 37°25' E 025°20'0 0.0
2017-Aug-22 13:00N 37°25' E 025°20'0 0.0
2017-Aug-22 12:30N 37°25' E 025°20'0 0.0
2017-Aug-22 12:00N 37°25' E 025°20'0 0.0
2017-Aug-22 11:24N 37°25' E 025°20'0 0.0
2017-Aug-22 11:00N 37°25' E 025°20'0 0.0
2017-Aug-22 10:30N 37°25' E 025°20'0 0.0
2017-Aug-22 10:00N 37°25' E 025°20'0 0.0
2017-Aug-22 08:57N 37°25' E 025°20'0 0.0
2017-Aug-22 08:21N 37°25' E 025°20'0 0.0
2017-Aug-22 08:00N 37°25' E 025°20'0 0.0
2017-Aug-22 07:30N 37°25' E 025°20'0 0.0
2017-Aug-22 06:54N 37°25' E 025°20'0 0.0
2017-Aug-22 06:30N 37°25' E 025°20'0 0.0
2017-Aug-22 05:57N 37°25' E 025°20'0 0.0
2017-Aug-22 05:30N 37°25' E 025°20'0 0.0
2017-Aug-22 05:00N 37°25' E 025°20'0 0.0
2017-Aug-22 04:30N 37°25' E 025°20'0 0.0
2017-Aug-22 04:00N 37°25' E 025°20'0 0.0
2017-Aug-22 03:30N 37°25' E 025°20'0 0.0
2017-Aug-22 03:00N 37°25' E 025°20'0 0.0
2017-Aug-22 02:30N 37°25' E 025°20'0 0.0
2017-Aug-22 01:54N 37°25' E 025°20'0 0.0
2017-Aug-22 01:30N 37°25' E 025°20'0 0.0
2017-Aug-22 01:00N 37°25' E 025°20'0 0.0
2017-Aug-22 00:30N 37°25' E 025°20'0 0.0
2017-Aug-22 00:00N 37°25' E 025°20'0 0.0
2017-Aug-21 23:30N 37°25' E 025°20'0 0.0
2017-Aug-21 23:00N 37°25' E 025°20'0 0.0
2017-Aug-21 22:30N 37°25' E 025°20'0 0.0
2017-Aug-21 21:51N 37°25' E 025°20'0 0.0
2017-Aug-21 21:30N 37°25' E 025°20'0 0.0
2017-Aug-21 20:57N 37°25' E 025°20'0 0.0
2017-Aug-21 20:27N 37°25' E 025°20'0 0.0
2017-Aug-21 20:00N 37°25' E 025°20'0 0.0
2017-Aug-21 19:27N 37°25' E 025°20'0 0.0
2017-Aug-21 19:00N 37°25' E 025°20'0 0.0
2017-Aug-21 18:30N 37°25' E 025°20'0 0.0
2017-Aug-21 18:00N 37°25' E 025°20'0 0.0
2017-Aug-21 17:21N 37°25' E 025°20'0 0.0
2017-Aug-21 16:57N 37°25' E 025°20'0 0.0
2017-Aug-21 16:30N 37°25' E 025°20'0 0.0
2017-Aug-21 16:00N 37°25' E 025°20'0 0.0
2017-Aug-21 15:30N 37°25' E 025°20'0 0.0
2017-Aug-21 14:57N 37°25' E 025°20'0 0.0
2017-Aug-21 14:30N 37°25' E 025°20'0 0.0
2017-Aug-21 14:00N 37°25' E 025°20'0 0.0
2017-Aug-21 13:30N 37°25' E 025°20'0 0.0
2017-Aug-21 12:54N 37°25' E 025°20'0 0.0
2017-Aug-21 12:30N 37°25' E 025°20'0 0.0
2017-Aug-21 12:00N 37°25' E 025°20'0 0.0
2017-Aug-21 11:27N 37°25' E 025°20'0 0.0
2017-Aug-21 11:00N 37°25' E 025°20'0 0.0
2017-Aug-21 10:30N 37°25' E 025°20'0 0.0
2017-Aug-21 10:00N 37°25' E 025°20'0 0.0
2017-Aug-21 09:30N 37°25' E 025°20'0 0.0
2017-Aug-21 08:51N 37°25' E 025°20'0 0.0
2017-Aug-21 08:30N 37°25' E 025°20'0 0.0
2017-Aug-21 08:00N 37°25' E 025°20'0 0.0
2017-Aug-21 07:30N 37°25' E 025°20'0 0.0
2017-Aug-21 07:00N 37°25' E 025°20'0 0.0
2017-Aug-21 06:30N 37°25' E 025°20'0 0.0
2017-Aug-21 05:57N 37°25' E 025°20'0 0.0
2017-Aug-21 05:30N 37°25' E 025°20'0 0.0
2017-Aug-21 04:56N 37°25' E 025°20'0 0.0
2017-Aug-21 04:29N 37°25' E 025°20'0 0.0
2017-Aug-21 03:59N 37°25' E 025°20'0 0.0
2017-Aug-21 03:29N 37°25' E 025°20'0 0.0
2017-Aug-21 02:59N 37°25' E 025°20'0 0.0
2017-Aug-21 02:29N 37°25' E 025°20'0 0.0
2017-Aug-21 01:59N 37°25' E 025°20'0 0.0
2017-Aug-21 01:29N 37°25' E 025°20'0 0.0
2017-Aug-21 00:59N 37°25' E 025°20'0 0.0
2017-Aug-21 00:23N 37°25' E 025°20'0 0.0
2017-Aug-20 23:59N 37°25' E 025°20'0 0.0
2017-Aug-20 23:29N 37°25' E 025°20'0 0.0
2017-Aug-20 22:59N 37°25' E 025°20'0 0.0
2017-Aug-20 22:29N 37°25' E 025°20'0 0.0
2017-Aug-20 21:59N 37°25' E 025°20'0 0.0
2017-Aug-20 21:29N 37°25' E 025°20'0 0.0
2017-Aug-20 20:59N 37°25' E 025°20'0 0.0
2017-Aug-20 20:26N 37°25' E 025°20'0 0.0
2017-Aug-20 19:53N 37°25' E 025°20'0 0.0
2017-Aug-20 19:29N 37°25' E 025°20'0 0.0
2017-Aug-20 18:59N 37°25' E 025°20'0 0.0
2017-Aug-20 18:29N 37°25' E 025°20'0 0.0
2017-Aug-20 17:56N 37°25' E 025°20'0 0.0
2017-Aug-20 17:29N 37°25' E 025°20'0 0.0
2017-Aug-20 16:59N 37°25' E 025°20'0 0.0
2017-Aug-20 16:29N 37°25' E 025°20'0 0.0
2017-Aug-20 15:53N 37°25' E 025°20'0 0.0
2017-Aug-20 15:20N 37°25' E 025°20'0 0.0
2017-Aug-20 14:44N 37°25' E 025°20'0 0.0
2017-Aug-20 14:29N 37°25' E 025°20'0 0.0
2017-Aug-20 13:56N 37°25' E 025°20'0 0.0
2017-Aug-20 13:26N 37°25' E 025°20'0 0.0
2017-Aug-20 12:59N 37°25' E 025°20'0 0.0
2017-Aug-20 12:26N 37°25' E 025°20'0 0.0
2017-Aug-20 11:59N 37°25' E 025°20'0 0.0
2017-Aug-20 11:29N 37°25' E 025°20'0 0.0
2017-Aug-20 10:56N 37°25' E 025°20'0 0.0
2017-Aug-20 10:29N 37°25' E 025°20'0 0.0
2017-Aug-20 09:59N 37°25' E 025°20'0 0.0
2017-Aug-20 09:29N 37°25' E 025°20'0 0.0
2017-Aug-20 08:59N 37°25' E 025°20'0 0.0
2017-Aug-20 08:29N 37°25' E 025°20'0 0.0
2017-Aug-20 07:59N 37°25' E 025°20'0 0.0
2017-Aug-20 07:23N 37°25' E 025°20'0 0.0
2017-Aug-20 06:56N 37°25' E 025°20'0 0.0
2017-Aug-20 06:29N 37°25' E 025°20'0 0.0
2017-Aug-20 05:53N 37°25' E 025°20'0 0.0
2017-Aug-20 05:29N 37°25' E 025°20'0 0.0
2017-Aug-20 04:53N 37°25' E 025°20'0 0.0
2017-Aug-20 04:23N 37°25' E 025°20'0 0.0
2017-Aug-20 03:53N 37°25' E 025°20'0 0.0
2017-Aug-20 03:26N 37°25' E 025°20'0 0.0
2017-Aug-20 02:59N 37°25' E 025°20'0 0.0
2017-Aug-20 02:29N 37°25' E 025°20'0 0.0
2017-Aug-20 01:59N 37°25' E 025°20'0 0.0
2017-Aug-20 01:29N 37°25' E 025°20'0 0.0
2017-Aug-20 00:56N 37°25' E 025°20'0 0.0
2017-Aug-20 00:29N 37°25' E 025°20'0 0.0
2017-Aug-19 23:56N 37°25' E 025°20'0 0.0
2017-Aug-19 23:29N 37°25' E 025°20'0 0.0
2017-Aug-19 22:59N 37°25' E 025°20'0 0.0
2017-Aug-19 22:26N 37°25' E 025°20'0 0.0
2017-Aug-19 21:59N 37°25' E 025°20'0 0.0
2017-Aug-19 21:11N 37°25' E 025°20'0 0.0
2017-Aug-19 20:59N 37°25' E 025°20'0 0.0
2017-Aug-19 20:29N 37°25' E 025°20'0 0.0
2017-Aug-19 19:59N 37°25' E 025°20'0 0.0
2017-Aug-19 19:29N 37°25' E 025°20'0 0.0
2017-Aug-19 18:59N 37°25' E 025°20'0 0.0
2017-Aug-19 18:29N 37°25' E 025°20'0 0.0
2017-Aug-19 17:53N 37°25' E 025°20'0 0.0
2017-Aug-19 17:29N 37°25' E 025°20'0 0.0
2017-Aug-19 16:59N 37°25' E 025°20'0 0.0
2017-Aug-19 16:29N 37°25' E 025°20'0 0.0
2017-Aug-19 15:56N 37°25' E 025°20'0 0.0
2017-Aug-19 15:29N 37°25' E 025°20'0 0.0
2017-Aug-19 14:59N 37°25' E 025°20'0 0.0
2017-Aug-19 13:59N 37°25' E 025°20'0 0.0
2017-Aug-19 13:29N 37°25' E 025°20'0 0.0
2017-Aug-19 12:59N 37°25' E 025°20'0 0.0
2017-Aug-19 12:29N 37°25' E 025°20'0 0.0
2017-Aug-19 11:59N 37°25' E 025°20'0 0.0
2017-Aug-19 11:29N 37°25' E 025°20'0 0.0
2017-Aug-19 10:59N 37°25' E 025°20'0 0.0
2017-Aug-19 10:29N 37°25' E 025°20'0 0.0
2017-Aug-19 09:59N 37°25' E 025°20'0 0.0
2017-Aug-19 09:29N 37°25' E 025°20'0 0.0
2017-Aug-19 08:56N 37°25' E 025°20'0 0.0
2017-Aug-19 08:29N 37°25' E 025°20'0 0.0
2017-Aug-19 07:56N 37°25' E 025°20'0 0.0
2017-Aug-19 07:26N 37°25' E 025°20'0 0.0
2017-Aug-19 06:59N 37°25' E 025°20'0 0.0
2017-Aug-19 06:29N 37°25' E 025°20'0 0.0
2017-Aug-19 05:59N 37°25' E 025°20'0 0.0
2017-Aug-19 05:29N 37°25' E 025°20'0 0.0
2017-Aug-19 04:59N 37°25' E 025°20'0 0.0
2017-Aug-19 04:26N 37°25' E 025°20'0 0.0
2017-Aug-19 03:59N 37°25' E 025°20'0 0.0
2017-Aug-19 03:29N 37°25' E 025°20'0 0.0
2017-Aug-19 02:59N 37°25' E 025°20'0 0.0
2017-Aug-19 02:29N 37°25' E 025°20'0 0.0
2017-Aug-19 01:56N 37°25' E 025°20'0 0.0
2017-Aug-19 01:26N 37°25' E 025°20'0 0.0
2017-Aug-19 00:56N 37°25' E 025°20'0 0.0
2017-Aug-19 00:29N 37°25' E 025°20'0 0.0
2017-Aug-18 23:59N 37°25' E 025°20'0 0.0
2017-Aug-18 23:29N 37°25' E 025°20'0 0.0
2017-Aug-18 22:59N 37°25' E 025°20'0 0.0
2017-Aug-18 22:20N 37°25' E 025°20'0 0.0
2017-Aug-18 21:59N 37°25' E 025°20'0 0.0
2017-Aug-18 21:26N 37°25' E 025°20'0 0.0
2017-Aug-18 20:59N 37°25' E 025°20'0 0.0
2017-Aug-18 20:29N 37°25' E 025°20'0 0.0
2017-Aug-18 19:59N 37°25' E 025°20'0 0.0
2017-Aug-18 19:29N 37°25' E 025°20'0 0.0
2017-Aug-18 18:59N 37°25' E 025°20'0 0.0
2017-Aug-18 18:26N 37°25' E 025°20'0 0.0
2017-Aug-18 17:59N 37°25' E 025°20'0 0.0
2017-Aug-18 17:26N 37°25' E 025°20'0 0.0
2017-Aug-18 16:56N 37°25' E 025°20'0 0.0
2017-Aug-18 16:26N 37°25' E 025°20'0 0.0
2017-Aug-18 15:59N 37°25' E 025°20'0 0.0
2017-Aug-18 15:29N 37°25' E 025°20'0 0.0
2017-Aug-18 14:59N 37°25' E 025°20'0 0.0
2017-Aug-18 14:26N 37°25' E 025°20'0 0.0
2017-Aug-18 13:29N 37°25' E 025°20'0 0.0
2017-Aug-18 12:59N 37°25' E 025°20'0 0.0
2017-Aug-18 12:29N 37°25' E 025°20'0 0.0
2017-Aug-18 11:59N 37°25' E 025°20'0 0.0
2017-Aug-18 11:29N 37°25' E 025°20'0 0.1
2017-Aug-18 10:58N 37°25' E 025°20'0 1.0
2017-Aug-18 10:30N 37°25' E 025°19'0 0.0
2017-Aug-18 10:00N 37°25' E 025°19'0 0.0
2017-Aug-18 09:30N 37°25' E 025°19'0 0.1
2017-Aug-18 09:00N 37°25' E 025°19'0 0.0
2017-Aug-18 08:27N 37°25' E 025°19'0 0.0
2017-Aug-18 08:00N 37°25' E 025°19'0 0.0
2017-Aug-18 07:30N 37°25' E 025°19'0 0.1
2017-Aug-18 06:51N 37°25' E 025°19'0 0.0
2017-Aug-18 06:09N 37°25' E 025°19'0 0.0
2017-Aug-18 05:54N 37°25' E 025°19'0 0.0
2017-Aug-18 05:30N 37°25' E 025°19'0 0.0
2017-Aug-18 04:57N 37°25' E 025°19'0 0.0
2017-Aug-18 04:30N 37°25' E 025°19'0 0.0
2017-Aug-18 03:54N 37°25' E 025°19'0 0.0
2017-Aug-18 03:27N 37°25' E 025°19'0 0.0
2017-Aug-18 02:54N 37°25' E 025°19'0 0.1
2017-Aug-18 02:27N 37°25' E 025°19'0 0.0
2017-Aug-18 02:00N 37°25' E 025°19'0 0.0
2017-Aug-18 01:15N 37°25' E 025°19'0 0.1
2017-Aug-18 01:00N 37°25' E 025°19'0 0.0
2017-Aug-18 00:30N 37°25' E 025°19'0 0.0
2017-Aug-18 00:00N 37°25' E 025°19'0 0.0
2017-Aug-17 23:06N 37°25' E 025°19'0 0.0
2017-Aug-17 23:00N 37°25' E 025°19'0 0.0
2017-Aug-17 22:30N 37°25' E 025°19'0 0.0
2017-Aug-17 22:00N 37°25' E 025°19'0 0.0
2017-Aug-17 21:30N 37°25' E 025°19'0 0.0
2017-Aug-17 21:00N 37°25' E 025°19'0 0.0
2017-Aug-17 20:30N 37°25' E 025°19'0 0.0
2017-Aug-17 20:00N 37°25' E 025°19'0 0.0
2017-Aug-17 19:30N 37°25' E 025°19'0 0.0
2017-Aug-17 18:58N 37°25' E 025°19'0 0.0
2017-Aug-17 18:22N 37°25' E 025°19'0 0.0
2017-Aug-17 17:52N 37°25' E 025°19'0 0.0
2017-Aug-17 17:28N 37°25' E 025°19'0 0.2
2017-Aug-17 17:00N 37°25' E 025°19'19 8.4
2017-Aug-17 14:48N 37°21' E 024°56'3 9.1
2017-Aug-17 14:29N 37°22' E 024°53'2 3.7
2017-Aug-17 13:57N 37°24' E 024°53'0 0.0
2017-Aug-17 13:24N 37°24' E 024°53'0 0.0
2017-Aug-17 12:51N 37°24' E 024°53'0 0.0
2017-Aug-17 12:21N 37°24' E 024°53'0 0.0
2017-Aug-17 11:54N 37°24' E 024°53'0 0.0
2017-Aug-17 11:09N 37°24' E 024°53'0 0.1
2017-Aug-17 10:54N 37°24' E 024°53'  
Track history (hours):
 
Tides and Currents Weather Stations Pressure Air Temp Water Temp Dewpoint Dewpoint Depression Visibility Wind Speed Wind Dir Waves Ship Positions

Stella Del Nord

Last reported at 2017-Aug-27 05:44 UTC. Time now 2017-Nov-19 21:58 UTC.
Position N 36°59' E 025°17'.
Warning: this ship's position is months out of date.

Length 26 m.

Type: Pleasure craft. MMSI: 235112353.

Date/timePositionNaut miles runAvg speedWind from/ knotsBaromVisibWave heightAir tempDewpointWater temp
2017-Aug-27 05:44N 36°59' E 025°17'210.7
2017-Aug-27 05:30N 37°02' E 025°17'510.9
2017-Aug-27 05:00N 37°07' E 025°18'3 6.0
2017-Aug-27 04:27N 37°10' E 025°15'2 2.9
2017-Aug-27 03:54N 37°09' E 025°14'0 0.0
2017-Aug-27 03:30N 37°09' E 025°14'0 0.0
2017-Aug-27 02:54N 37°09' E 025°14'0 0.0
2017-Aug-27 02:15N 37°09' E 025°14'0 0.0
2017-Aug-27 01:48N 37°09' E 025°14'0 0.0
2017-Aug-27 01:30N 37°09' E 025°14'0 0.0
2017-Aug-27 00:57N 37°09' E 025°14'0 0.0
2017-Aug-27 00:30N 37°09' E 025°14'0 0.0
2017-Aug-26 23:57N 37°09' E 025°14'0 0.0
2017-Aug-26 23:24N 37°09' E 025°14'0 0.0
2017-Aug-26 22:54N 37°09' E 025°14'0 0.0
2017-Aug-26 22:27N 37°09' E 025°14'0 0.0
2017-Aug-26 21:54N 37°09' E 025°14'0 0.0
2017-Aug-26 21:27N 37°09' E 025°14'0 0.1
2017-Aug-26 21:00N 37°09' E 025°14'0 0.0
2017-Aug-26 20:30N 37°09' E 025°14'0 0.0
2017-Aug-26 19:48N 37°09' E 025°14'0 0.0
2017-Aug-26 19:27N 37°09' E 025°14'0 0.0
2017-Aug-26 18:51N 37°09' E 025°14'0 0.0
2017-Aug-26 18:21N 37°09' E 025°14'0 0.0
2017-Aug-26 18:00N 37°09' E 025°14'0 0.0
2017-Aug-26 17:21N 37°09' E 025°14'0 0.0
2017-Aug-26 16:51N 37°09' E 025°14'0 0.0
2017-Aug-26 16:30N 37°09' E 025°14'0 0.0
2017-Aug-26 16:00N 37°09' E 025°14'0 0.0
2017-Aug-26 15:27N 37°09' E 025°14'0 0.0
2017-Aug-26 14:54N 37°09' E 025°14'0 0.0
2017-Aug-26 13:51N 37°09' E 025°14'0 0.0
2017-Aug-26 13:27N 37°09' E 025°14'0 0.1
2017-Aug-26 13:00N 37°09' E 025°14'0 0.0
2017-Aug-26 12:24N 37°09' E 025°14'0 0.0
2017-Aug-26 12:00N 37°09' E 025°14'0 0.0
2017-Aug-26 11:21N 37°09' E 025°14'0 0.2
2017-Aug-26 11:00N 37°09' E 025°14'0 0.4
2017-Aug-26 10:30N 37°08' E 025°14'0 0.0
2017-Aug-26 09:49N 37°08' E 025°14'0 0.0
2017-Aug-26 09:28N 37°08' E 025°14'0 0.0
2017-Aug-26 08:49N 37°08' E 025°14'0 0.0
2017-Aug-26 08:16N 37°08' E 025°14'0 0.0
2017-Aug-26 07:43N 37°08' E 025°14'0 0.0
2017-Aug-26 07:22N 37°08' E 025°14'0 0.0
2017-Aug-26 06:52N 37°08' E 025°14'0 0.0
2017-Aug-26 06:25N 37°08' E 025°14'1 1.8
2017-Aug-26 05:56N 37°09' E 025°15'410.0
2017-Aug-26 05:30N 37°13' E 025°16'510.4
2017-Aug-26 05:00N 37°18' E 025°18'5 9.8
2017-Aug-26 04:30N 37°23' E 025°19'2 3.6
2017-Aug-26 03:57N 37°25' E 025°20'0 0.0
2017-Aug-26 03:27N 37°25' E 025°20'0 0.0
2017-Aug-26 02:48N 37°25' E 025°20'0 0.0
2017-Aug-26 02:24N 37°25' E 025°20'0 0.0
2017-Aug-26 01:57N 37°25' E 025°20'0 0.0
2017-Aug-26 01:30N 37°25' E 025°20'0 0.0
2017-Aug-26 01:00N 37°25' E 025°20'0 0.0
2017-Aug-26 00:30N 37°25' E 025°20'0 0.0
2017-Aug-25 23:54N 37°25' E 025°20'0 0.0
2017-Aug-25 23:21N 37°25' E 025°20'0 0.0
2017-Aug-25 23:00N 37°25' E 025°20'0 0.0
2017-Aug-25 22:30N 37°25' E 025°20'0 0.0
2017-Aug-25 21:57N 37°25' E 025°20'0 0.0
2017-Aug-25 21:30N 37°25' E 025°20'0 0.0
2017-Aug-25 21:00N 37°25' E 025°20'0 0.0
2017-Aug-25 20:30N 37°25' E 025°20'0 0.0
2017-Aug-25 20:00N 37°25' E 025°20'0 0.0
2017-Aug-25 19:30N 37°25' E 025°20'0 0.0
2017-Aug-25 19:00N 37°25' E 025°20'0 0.0
2017-Aug-25 18:27N 37°25' E 025°20'0 0.0
2017-Aug-25 18:00N 37°25' E 025°20'0 0.0
2017-Aug-25 17:27N 37°25' E 025°20'0 0.0
2017-Aug-25 17:00N 37°25' E 025°20'0 0.0
2017-Aug-25 16:30N 37°25' E 025°20'0 0.0
2017-Aug-25 16:00N 37°25' E 025°20'0 0.0
2017-Aug-25 15:27N 37°25' E 025°20'0 0.0
2017-Aug-25 14:51N 37°25' E 025°20'0 0.0
2017-Aug-25 14:24N 37°25' E 025°20'0 0.0
2017-Aug-25 13:30N 37°25' E 025°20'0 0.0
2017-Aug-25 13:00N 37°25' E 025°20'0 0.0
2017-Aug-25 12:27N 37°25' E 025°20'0 0.0
2017-Aug-25 12:00N 37°25' E 025°20'0 0.0
2017-Aug-25 11:21N 37°25' E 025°20'0 0.0
2017-Aug-25 11:00N 37°25' E 025°20'0 0.0
2017-Aug-25 10:30N 37°25' E 025°20'0 0.0
2017-Aug-25 10:00N 37°25' E 025°20'0 0.0
2017-Aug-25 09:30N 37°25' E 025°20'0 0.0
2017-Aug-25 08:57N 37°25' E 025°20'0 0.0
2017-Aug-25 08:30N 37°25' E 025°20'0 0.0
2017-Aug-25 08:00N 37°25' E 025°20'0 0.0
2017-Aug-25 07:30N 37°25' E 025°20'0 0.0
2017-Aug-25 07:00N 37°25' E 025°20'0 0.0
2017-Aug-25 06:30N 37°25' E 025°20'0 0.0
2017-Aug-25 06:00N 37°25' E 025°20'0 0.0
2017-Aug-25 05:30N 37°25' E 025°20'0 0.0
2017-Aug-25 05:00N 37°25' E 025°20'0 0.0
2017-Aug-25 04:24N 37°25' E 025°20'0 0.0
2017-Aug-25 04:00N 37°25' E 025°20'0 0.0
2017-Aug-25 03:30N 37°25' E 025°20'0 0.0
2017-Aug-25 02:57N 37°25' E 025°20'0 0.0
2017-Aug-25 02:30N 37°25' E 025°20'0 0.0
2017-Aug-25 02:00N 37°25' E 025°20'0 0.0
2017-Aug-25 01:30N 37°25' E 025°20'0 0.0
2017-Aug-25 01:00N 37°25' E 025°20'0 0.0
2017-Aug-25 00:30N 37°25' E 025°20'0 0.0
2017-Aug-24 23:57N 37°25' E 025°20'0 0.0
2017-Aug-24 23:30N 37°25' E 025°20'0 0.0
2017-Aug-24 22:57N 37°25' E 025°20'0 0.0
2017-Aug-24 22:30N 37°25' E 025°20'0 0.0
2017-Aug-24 21:57N 37°25' E 025°20'0 0.0
2017-Aug-24 21:24N 37°25' E 025°20'0 0.0
2017-Aug-24 21:00N 37°25' E 025°20'0 0.0
2017-Aug-24 20:30N 37°25' E 025°20'0 0.0
2017-Aug-24 20:00N 37°25' E 025°20'0 0.0
2017-Aug-24 19:30N 37°25' E 025°20'0 0.0
2017-Aug-24 19:00N 37°25' E 025°20'0 0.0
2017-Aug-24 18:15N 37°25' E 025°20'0 0.0
2017-Aug-24 17:57N 37°25' E 025°20'0 0.0
2017-Aug-24 16:54N 37°25' E 025°20'0 0.0
2017-Aug-24 16:30N 37°25' E 025°20'0 0.0
2017-Aug-24 16:00N 37°25' E 025°20'0 0.0
2017-Aug-24 15:15N 37°25' E 025°20'0 0.0
2017-Aug-24 14:42N 37°25' E 025°20'0 0.0
2017-Aug-24 14:27N 37°25' E 025°20'0 0.0
2017-Aug-24 14:00N 37°25' E 025°20'0 0.0
2017-Aug-24 13:30N 37°25' E 025°20'0 0.0
2017-Aug-24 12:57N 37°25' E 025°20'0 0.0
2017-Aug-24 12:27N 37°25' E 025°20'0 0.0
2017-Aug-24 10:57N 37°25' E 025°20'0 0.0
2017-Aug-24 10:24N 37°25' E 025°20'0 0.0
2017-Aug-24 09:51N 37°25' E 025°20'0 0.0
2017-Aug-24 09:30N 37°25' E 025°20'0 0.0
2017-Aug-24 08:57N 37°25' E 025°20'0 0.0
2017-Aug-24 08:06N 37°25' E 025°20'0 0.0
2017-Aug-24 08:00N 37°25' E 025°20'0 0.0
2017-Aug-24 07:30N 37°25' E 025°20'0 0.0
2017-Aug-24 07:00N 37°25' E 025°20'0 0.0
2017-Aug-24 06:30N 37°25' E 025°20'0 0.0
2017-Aug-24 06:00N 37°25' E 025°20'0 0.0
2017-Aug-24 05:30N 37°25' E 025°20'0 0.0
2017-Aug-24 05:00N 37°25' E 025°20'0 0.0
2017-Aug-24 04:30N 37°25' E 025°20'0 0.0
2017-Aug-24 04:00N 37°25' E 025°20'0 0.0
2017-Aug-24 03:30N 37°25' E 025°20'0 0.0
2017-Aug-24 02:57N 37°25' E 025°20'0 0.0
2017-Aug-24 02:24N 37°25' E 025°20'0 0.0
2017-Aug-24 02:00N 37°25' E 025°20'0 0.0
2017-Aug-24 01:30N 37°25' E 025°20'0 0.0
2017-Aug-24 01:00N 37°25' E 025°20'0 0.0
2017-Aug-24 00:30N 37°25' E 025°20'0 0.0
2017-Aug-24 00:00N 37°25' E 025°20'0 0.0
2017-Aug-23 23:27N 37°25' E 025°20'0 0.0
2017-Aug-23 23:00N 37°25' E 025°20'0 0.0
2017-Aug-23 22:30N 37°25' E 025°20'0 0.0
2017-Aug-23 22:00N 37°25' E 025°20'0 0.0
2017-Aug-23 21:30N 37°25' E 025°20'0 0.0
2017-Aug-23 21:00N 37°25' E 025°20'0 0.0
2017-Aug-23 20:27N 37°25' E 025°20'0 0.0
2017-Aug-23 20:00N 37°25' E 025°20'0 0.0
2017-Aug-23 19:30N 37°25' E 025°20'0 0.0
2017-Aug-23 19:00N 37°25' E 025°20'0 0.0
2017-Aug-23 18:21N 37°25' E 025°20'0 0.0
2017-Aug-23 17:57N 37°25' E 025°20'0 0.0
2017-Aug-23 17:30N 37°25' E 025°20'0 0.0
2017-Aug-23 16:57N 37°25' E 025°20'0 0.0
2017-Aug-23 16:27N 37°25' E 025°20'0 0.0
2017-Aug-23 16:00N 37°25' E 025°20'0 0.0
2017-Aug-23 15:30N 37°25' E 025°20'0 0.0
2017-Aug-23 14:57N 37°25' E 025°20'0 0.0
2017-Aug-23 14:00N 37°25' E 025°20'0 0.0
2017-Aug-23 13:30N 37°25' E 025°20'0 0.0
2017-Aug-23 12:57N 37°25' E 025°20'0 0.0
2017-Aug-23 12:18N 37°25' E 025°20'0 0.0
2017-Aug-23 12:00N 37°25' E 025°20'0 0.0
2017-Aug-23 11:30N 37°25' E 025°20'0 0.0
2017-Aug-23 11:00N 37°25' E 025°20'0 0.0
2017-Aug-23 10:30N 37°25' E 025°20'0 0.0
2017-Aug-23 10:00N 37°25' E 025°20'0 0.0
2017-Aug-23 09:30N 37°25' E 025°20'0 0.0
2017-Aug-23 09:00N 37°25' E 025°20'0 0.0
2017-Aug-23 08:30N 37°25' E 025°20'0 0.0
2017-Aug-23 08:00N 37°25' E 025°20'0 0.0
2017-Aug-23 07:27N 37°25' E 025°20'0 0.0
2017-Aug-23 07:00N 37°25' E 025°20'0 0.0
2017-Aug-23 06:30N 37°25' E 025°20'0 0.0
2017-Aug-23 05:57N 37°25' E 025°20'0 0.0
2017-Aug-23 05:30N 37°25' E 025°20'0 0.0
2017-Aug-23 04:54N 37°25' E 025°20'0 0.0
2017-Aug-23 04:30N 37°25' E 025°20'0 0.0
2017-Aug-23 04:00N 37°25' E 025°20'0 0.0
2017-Aug-23 03:21N 37°25' E 025°20'0 0.0
2017-Aug-23 03:00N 37°25' E 025°20'0 0.0
2017-Aug-23 02:30N 37°25' E 025°20'0 0.0
2017-Aug-23 01:54N 37°25' E 025°20'0 0.0
2017-Aug-23 01:30N 37°25' E 025°20'0 0.0
2017-Aug-23 01:00N 37°25' E 025°20'0 0.0
2017-Aug-23 00:27N 37°25' E 025°20'0 0.0
2017-Aug-22 23:57N 37°25' E 025°20'0 0.0
2017-Aug-22 23:30N 37°25' E 025°20'0 0.0
2017-Aug-22 23:00N 37°25' E 025°20'0 0.0
2017-Aug-22 22:27N 37°25' E 025°20'0 0.0
2017-Aug-22 22:00N 37°25' E 025°20'0 0.0
2017-Aug-22 21:30N 37°25' E 025°20'0 0.0
2017-Aug-22 21:00N 37°25' E 025°20'0 0.0
2017-Aug-22 20:30N 37°25' E 025°20'0 0.0
2017-Aug-22 20:00N 37°25' E 025°20'0 0.0
2017-Aug-22 19:30N 37°25' E 025°20'0 0.0
2017-Aug-22 19:00N 37°25' E 025°20'0 0.0
2017-Aug-22 18:30N 37°25' E 025°20'0 0.0
2017-Aug-22 17:54N 37°25' E 025°20'0 0.0
2017-Aug-22 17:30N 37°25' E 025°20'0 0.0
2017-Aug-22 17:00N 37°25' E 025°20'0 0.0
2017-Aug-22 16:30N 37°25' E 025°20'0 0.0
2017-Aug-22 16:00N 37°25' E 025°20'0 0.0
2017-Aug-22 15:30N 37°25' E 025°20'0 0.0
2017-Aug-22 14:54N 37°25' E 025°20'0 0.0
2017-Aug-22 14:30N 37°25' E 025°20'0 0.0
2017-Aug-22 14:00N 37°25' E 025°20'0 0.0
2017-Aug-22 13:21N 37°25' E 025°20'0 0.0
2017-Aug-22 13:00N 37°25' E 025°20'0 0.0
2017-Aug-22 12:30N 37°25' E 025°20'0 0.0
2017-Aug-22 12:00N 37°25' E 025°20'0 0.0
2017-Aug-22 11:24N 37°25' E 025°20'0 0.0
2017-Aug-22 11:00N 37°25' E 025°20'0 0.0
2017-Aug-22 10:30N 37°25' E 025°20'0 0.0
2017-Aug-22 10:00N 37°25' E 025°20'0 0.0
2017-Aug-22 08:57N 37°25' E 025°20'0 0.0
2017-Aug-22 08:21N 37°25' E 025°20'0 0.0
2017-Aug-22 08:00N 37°25' E 025°20'0 0.0
2017-Aug-22 07:30N 37°25' E 025°20'0 0.0
2017-Aug-22 06:54N 37°25' E 025°20'0 0.0
2017-Aug-22 06:30N 37°25' E 025°20'0 0.0
2017-Aug-22 05:57N 37°25' E 025°20'0 0.0
2017-Aug-22 05:30N 37°25' E 025°20'0 0.0
2017-Aug-22 05:00N 37°25' E 025°20'0 0.0
2017-Aug-22 04:30N 37°25' E 025°20'0 0.0
2017-Aug-22 04:00N 37°25' E 025°20'0 0.0
2017-Aug-22 03:30N 37°25' E 025°20'0 0.0
2017-Aug-22 03:00N 37°25' E 025°20'0 0.0
2017-Aug-22 02:30N 37°25' E 025°20'0 0.0
2017-Aug-22 01:54N 37°25' E 025°20'0 0.0
2017-Aug-22 01:30N 37°25' E 025°20'0 0.0
2017-Aug-22 01:00N 37°25' E 025°20'0 0.0
2017-Aug-22 00:30N 37°25' E 025°20'0 0.0
2017-Aug-22 00:00N 37°25' E 025°20'0 0.0
2017-Aug-21 23:30N 37°25' E 025°20'0 0.0
2017-Aug-21 23:00N 37°25' E 025°20'0 0.0
2017-Aug-21 22:30N 37°25' E 025°20'0 0.0
2017-Aug-21 21:51N 37°25' E 025°20'0 0.0
2017-Aug-21 21:30N 37°25' E 025°20'0 0.0
2017-Aug-21 20:57N 37°25' E 025°20'0 0.0
2017-Aug-21 20:27N 37°25' E 025°20'0 0.0
2017-Aug-21 20:00N 37°25' E 025°20'0 0.0
2017-Aug-21 19:27N 37°25' E 025°20'0 0.0
2017-Aug-21 19:00N 37°25' E 025°20'0 0.0
2017-Aug-21 18:30N 37°25' E 025°20'0 0.0
2017-Aug-21 18:00N 37°25' E 025°20'0 0.0
2017-Aug-21 17:21N 37°25' E 025°20'0 0.0
2017-Aug-21 16:57N 37°25' E 025°20'0 0.0
2017-Aug-21 16:30N 37°25' E 025°20'0 0.0
2017-Aug-21 16:00N 37°25' E 025°20'0 0.0
2017-Aug-21 15:30N 37°25' E 025°20'0 0.0
2017-Aug-21 14:57N 37°25' E 025°20'0 0.0
2017-Aug-21 14:30N 37°25' E 025°20'0 0.0
2017-Aug-21 14:00N 37°25' E 025°20'0 0.0
2017-Aug-21 13:30N 37°25' E 025°20'0 0.0
2017-Aug-21 12:54N 37°25' E 025°20'0 0.0
2017-Aug-21 12:30N 37°25' E 025°20'0 0.0
2017-Aug-21 12:00N 37°25' E 025°20'0 0.0
2017-Aug-21 11:27N 37°25' E 025°20'0 0.0
2017-Aug-21 11:00N 37°25' E 025°20'0 0.0
2017-Aug-21 10:30N 37°25' E 025°20'0 0.0
2017-Aug-21 10:00N 37°25' E 025°20'0 0.0
2017-Aug-21 09:30N 37°25' E 025°20'0 0.0
2017-Aug-21 08:51N 37°25' E 025°20'0 0.0
2017-Aug-21 08:30N 37°25' E 025°20'0 0.0
2017-Aug-21 08:00N 37°25' E 025°20'0 0.0
2017-Aug-21 07:30N 37°25' E 025°20'0 0.0
2017-Aug-21 07:00N 37°25' E 025°20'0 0.0
2017-Aug-21 06:30N 37°25' E 025°20'0 0.0
2017-Aug-21 05:57N 37°25' E 025°20'0 0.0
2017-Aug-21 05:30N 37°25' E 025°20'0 0.0
2017-Aug-21 04:56N 37°25' E 025°20'0 0.0
2017-Aug-21 04:29N 37°25' E 025°20'0 0.0
2017-Aug-21 03:59N 37°25' E 025°20'0 0.0
2017-Aug-21 03:29N 37°25' E 025°20'0 0.0
2017-Aug-21 02:59N 37°25' E 025°20'0 0.0
2017-Aug-21 02:29N 37°25' E 025°20'0 0.0
2017-Aug-21 01:59N 37°25' E 025°20'0 0.0
2017-Aug-21 01:29N 37°25' E 025°20'0 0.0
2017-Aug-21 00:59N 37°25' E 025°20'0 0.0
2017-Aug-21 00:23N 37°25' E 025°20'0 0.0
2017-Aug-20 23:59N 37°25' E 025°20'0 0.0
2017-Aug-20 23:29N 37°25' E 025°20'0 0.0
2017-Aug-20 22:59N 37°25' E 025°20'0 0.0
2017-Aug-20 22:29N 37°25' E 025°20'0 0.0
2017-Aug-20 21:59N 37°25' E 025°20'0 0.0
2017-Aug-20 21:29N 37°25' E 025°20'0 0.0
2017-Aug-20 20:59N 37°25' E 025°20'0 0.0
2017-Aug-20 20:26N 37°25' E 025°20'0 0.0
2017-Aug-20 19:53N 37°25' E 025°20'0 0.0
2017-Aug-20 19:29N 37°25' E 025°20'0 0.0
2017-Aug-20 18:59N 37°25' E 025°20'0 0.0
2017-Aug-20 18:29N 37°25' E 025°20'0 0.0
2017-Aug-20 17:56N 37°25' E 025°20'0 0.0
2017-Aug-20 17:29N 37°25' E 025°20'0 0.0
2017-Aug-20 16:59N 37°25' E 025°20'0 0.0
2017-Aug-20 16:29N 37°25' E 025°20'0 0.0
2017-Aug-20 15:53N 37°25' E 025°20'0 0.0
2017-Aug-20 15:20N 37°25' E 025°20'0 0.0
2017-Aug-20 14:44N 37°25' E 025°20'0 0.0
2017-Aug-20 14:29N 37°25' E 025°20'0 0.0
2017-Aug-20 13:56N 37°25' E 025°20'0 0.0
2017-Aug-20 13:26N 37°25' E 025°20'0 0.0
2017-Aug-20 12:59N 37°25' E 025°20'0 0.0
2017-Aug-20 12:26N 37°25' E 025°20'0 0.0
2017-Aug-20 11:59N 37°25' E 025°20'0 0.0
2017-Aug-20 11:29N 37°25' E 025°20'0 0.0
2017-Aug-20 10:56N 37°25' E 025°20'0 0.0
2017-Aug-20 10:29N 37°25' E 025°20'0 0.0
2017-Aug-20 09:59N 37°25' E 025°20'0 0.0
2017-Aug-20 09:29N 37°25' E 025°20'0 0.0
2017-Aug-20 08:59N 37°25' E 025°20'0 0.0
2017-Aug-20 08:29N 37°25' E 025°20'0 0.0
2017-Aug-20 07:59N 37°25' E 025°20'0 0.0
2017-Aug-20 07:23N 37°25' E 025°20'0 0.0
2017-Aug-20 06:56N 37°25' E 025°20'0 0.0
2017-Aug-20 06:29N 37°25' E 025°20'0 0.0
2017-Aug-20 05:53N 37°25' E 025°20'0 0.0
2017-Aug-20 05:29N 37°25' E 025°20'0 0.0
2017-Aug-20 04:53N 37°25' E 025°20'0 0.0
2017-Aug-20 04:23N 37°25' E 025°20'0 0.0
2017-Aug-20 03:53N 37°25' E 025°20'0 0.0
2017-Aug-20 03:26N 37°25' E 025°20'0 0.0
2017-Aug-20 02:59N 37°25' E 025°20'0 0.0
2017-Aug-20 02:29N 37°25' E 025°20'0 0.0
2017-Aug-20 01:59N 37°25' E 025°20'0 0.0
2017-Aug-20 01:29N 37°25' E 025°20'0 0.0
2017-Aug-20 00:56N 37°25' E 025°20'0 0.0
2017-Aug-20 00:29N 37°25' E 025°20'0 0.0
2017-Aug-19 23:56N 37°25' E 025°20'0 0.0
2017-Aug-19 23:29N 37°25' E 025°20'0 0.0
2017-Aug-19 22:59N 37°25' E 025°20'0 0.0
2017-Aug-19 22:26N 37°25' E 025°20'0 0.0
2017-Aug-19 21:59N 37°25' E 025°20'0 0.0
2017-Aug-19 21:11N 37°25' E 025°20'0 0.0
2017-Aug-19 20:59N 37°25' E 025°20'0 0.0
2017-Aug-19 20:29N 37°25' E 025°20'0 0.0
2017-Aug-19 19:59N 37°25' E 025°20'0 0.0
2017-Aug-19 19:29N 37°25' E 025°20'0 0.0
2017-Aug-19 18:59N 37°25' E 025°20'0 0.0
2017-Aug-19 18:29N 37°25' E 025°20'0 0.0
2017-Aug-19 17:53N 37°25' E 025°20'0 0.0
2017-Aug-19 17:29N 37°25' E 025°20'0 0.0
2017-Aug-19 16:59N 37°25' E 025°20'0 0.0
2017-Aug-19 16:29N 37°25' E 025°20'0 0.0
2017-Aug-19 15:56N 37°25' E 025°20'0 0.0
2017-Aug-19 15:29N 37°25' E 025°20'0 0.0
2017-Aug-19 14:59N 37°25' E 025°20'0 0.0
2017-Aug-19 13:59N 37°25' E 025°20'0 0.0
2017-Aug-19 13:29N 37°25' E 025°20'0 0.0
2017-Aug-19 12:59N 37°25' E 025°20'0 0.0
2017-Aug-19 12:29N 37°25' E 025°20'0 0.0
2017-Aug-19 11:59N 37°25' E 025°20'0 0.0
2017-Aug-19 11:29N 37°25' E 025°20'0 0.0
2017-Aug-19 10:59N 37°25' E 025°20'0 0.0
2017-Aug-19 10:29N 37°25' E 025°20'0 0.0
2017-Aug-19 09:59N 37°25' E 025°20'0 0.0
2017-Aug-19 09:29N 37°25' E 025°20'0 0.0
2017-Aug-19 08:56N 37°25' E 025°20'0 0.0
2017-Aug-19 08:29N 37°25' E 025°20'0 0.0
2017-Aug-19 07:56N 37°25' E 025°20'0 0.0
2017-Aug-19 07:26N 37°25' E 025°20'0 0.0
2017-Aug-19 06:59N 37°25' E 025°20'0 0.0
2017-Aug-19 06:29N 37°25' E 025°20'0 0.0
2017-Aug-19 05:59N 37°25' E 025°20'0 0.0
2017-Aug-19 05:29N 37°25' E 025°20'0 0.0
2017-Aug-19 04:59N 37°25' E 025°20'0 0.0
2017-Aug-19 04:26N 37°25' E 025°20'0 0.0
2017-Aug-19 03:59N 37°25' E 025°20'0 0.0
2017-Aug-19 03:29N 37°25' E 025°20'0 0.0
2017-Aug-19 02:59N 37°25' E 025°20'0 0.0
2017-Aug-19 02:29N 37°25' E 025°20'0 0.0
2017-Aug-19 01:56N 37°25' E 025°20'0 0.0
2017-Aug-19 01:26N 37°25' E 025°20'0 0.0
2017-Aug-19 00:56N 37°25' E 025°20'0 0.0
2017-Aug-19 00:29N 37°25' E 025°20'0 0.0
2017-Aug-18 23:59N 37°25' E 025°20'0 0.0
2017-Aug-18 23:29N 37°25' E 025°20'0 0.0
2017-Aug-18 22:59N 37°25' E 025°20'0 0.0
2017-Aug-18 22:20N 37°25' E 025°20'0 0.0
2017-Aug-18 21:59N 37°25' E 025°20'0 0.0
2017-Aug-18 21:26N 37°25' E 025°20'0 0.0
2017-Aug-18 20:59N 37°25' E 025°20'0 0.0
2017-Aug-18 20:29N 37°25' E 025°20'0 0.0
2017-Aug-18 19:59N 37°25' E 025°20'0 0.0
2017-Aug-18 19:29N 37°25' E 025°20'0 0.0
2017-Aug-18 18:59N 37°25' E 025°20'0 0.0
2017-Aug-18 18:26N 37°25' E 025°20'0 0.0
2017-Aug-18 17:59N 37°25' E 025°20'0 0.0
2017-Aug-18 17:26N 37°25' E 025°20'0 0.0
2017-Aug-18 16:56N 37°25' E 025°20'0 0.0
2017-Aug-18 16:26N 37°25' E 025°20'0 0.0
2017-Aug-18 15:59N 37°25' E 025°20'0 0.0
2017-Aug-18 15:29N 37°25' E 025°20'0 0.0
2017-Aug-18 14:59N 37°25' E 025°20'0 0.0
2017-Aug-18 14:26N 37°25' E 025°20'0 0.0
2017-Aug-18 13:29N 37°25' E 025°20'0 0.0
2017-Aug-18 12:59N 37°25' E 025°20'0 0.0
2017-Aug-18 12:29N 37°25' E 025°20'0 0.0
2017-Aug-18 11:59N 37°25' E 025°20'0 0.0
2017-Aug-18 11:29N 37°25' E 025°20'0 0.1
2017-Aug-18 10:58N 37°25' E 025°20'0 1.0
2017-Aug-18 10:30N 37°25' E 025°19'0 0.0
2017-Aug-18 10:00N 37°25' E 025°19'0 0.0
2017-Aug-18 09:30N 37°25' E 025°19'0 0.1
2017-Aug-18 09:00N 37°25' E 025°19'0 0.0
2017-Aug-18 08:27N 37°25' E 025°19'0 0.0
2017-Aug-18 08:00N 37°25' E 025°19'0 0.0
2017-Aug-18 07:30N 37°25' E 025°19'0 0.1
2017-Aug-18 06:51N 37°25' E 025°19'0 0.0
2017-Aug-18 06:09N 37°25' E 025°19'0 0.0
2017-Aug-18 05:54N 37°25' E 025°19'0 0.0
2017-Aug-18 05:30N 37°25' E 025°19'0 0.0
2017-Aug-18 04:57N 37°25' E 025°19'0 0.0
2017-Aug-18 04:30N 37°25' E 025°19'0 0.0
2017-Aug-18 03:54N 37°25' E 025°19'0 0.0
2017-Aug-18 03:27N 37°25' E 025°19'0 0.0
2017-Aug-18 02:54N 37°25' E 025°19'0 0.1
2017-Aug-18 02:27N 37°25' E 025°19'0 0.0
2017-Aug-18 02:00N 37°25' E 025°19'0 0.0
2017-Aug-18 01:15N 37°25' E 025°19'0 0.1
2017-Aug-18 01:00N 37°25' E 025°19'0 0.0
2017-Aug-18 00:30N 37°25' E 025°19'0 0.0
2017-Aug-18 00:00N 37°25' E 025°19'0 0.0
2017-Aug-17 23:06N 37°25' E 025°19'0 0.0
2017-Aug-17 23:00N 37°25' E 025°19'0 0.0
2017-Aug-17 22:30N 37°25' E 025°19'0 0.0
2017-Aug-17 22:00N 37°25' E 025°19'0 0.0
2017-Aug-17 21:30N 37°25' E 025°19'0 0.0
2017-Aug-17 21:00N 37°25' E 025°19'0 0.0
2017-Aug-17 20:30N 37°25' E 025°19'0 0.0
2017-Aug-17 20:00N 37°25' E 025°19'0 0.0
2017-Aug-17 19:30N 37°25' E 025°19'0 0.0
2017-Aug-17 18:58N 37°25' E 025°19'0 0.0
2017-Aug-17 18:22N 37°25' E 025°19'0 0.0
2017-Aug-17 17:52N 37°25' E 025°19'0 0.0
2017-Aug-17 17:28N 37°25' E 025°19'0 0.2
2017-Aug-17 17:00N 37°25' E 025°19'19 8.4
2017-Aug-17 14:48N 37°21' E 024°56'3 9.1
2017-Aug-17 14:29N 37°22' E 024°53'2 3.7
2017-Aug-17 13:57N 37°24' E 024°53'0 0.0
2017-Aug-17 13:24N 37°24' E 024°53'0 0.0
2017-Aug-17 12:51N 37°24' E 024°53'0 0.0
2017-Aug-17 12:21N 37°24' E 024°53'0 0.0
2017-Aug-17 11:54N 37°24' E 024°53'0 0.0
2017-Aug-17 11:09N 37°24' E 024°53'0 0.1
2017-Aug-17 10:54N 37°24' E 024°53'  

Dump ship's entire track history